sensor_id;sensor_type;location;lat;lon;timestamp;P1;durP1;ratioP1;P2;durP2;ratioP2
19679;SDS011;9989;48.962;9.182;2022-10-16T00:01:47;6.00;;;2.23;;
19679;SDS011;9989;48.962;9.182;2022-10-16T00:04:13;5.47;;;2.43;;
19679;SDS011;9989;48.962;9.182;2022-10-16T00:06:39;5.80;;;2.03;;
19679;SDS011;9989;48.962;9.182;2022-10-16T00:09:04;5.40;;;2.20;;
19679;SDS011;9989;48.962;9.182;2022-10-16T00:11:32;4.37;;;1.90;;
19679;SDS011;9989;48.962;9.182;2022-10-16T00:14:01;6.10;;;2.17;;
19679;SDS011;9989;48.962;9.182;2022-10-16T00:16:30;5.13;;;2.20;;
19679;SDS011;9989;48.962;9.182;2022-10-16T00:18:56;5.27;;;2.00;;
19679;SDS011;9989;48.962;9.182;2022-10-16T00:21:23;5.07;;;2.03;;
19679;SDS011;9989;48.962;9.182;2022-10-16T00:23:51;6.17;;;2.23;;
19679;SDS011;9989;48.962;9.182;2022-10-16T00:26:18;4.63;;;2.17;;
19679;SDS011;9989;48.962;9.182;2022-10-16T00:28:48;6.80;;;2.40;;
19679;SDS011;9989;48.962;9.182;2022-10-16T00:31:16;5.80;;;2.20;;
19679;SDS011;9989;48.962;9.182;2022-10-16T00:33:42;4.63;;;1.97;;
19679;SDS011;9989;48.962;9.182;2022-10-16T00:36:09;4.30;;;1.97;;
19679;SDS011;9989;48.962;9.182;2022-10-16T00:38:36;4.33;;;1.90;;
19679;SDS011;9989;48.962;9.182;2022-10-16T00:41:02;4.63;;;2.17;;
19679;SDS011;9989;48.962;9.182;2022-10-16T00:43:33;4.20;;;2.10;;
19679;SDS011;9989;48.962;9.182;2022-10-16T00:45:59;5.20;;;1.83;;
19679;SDS011;9989;48.962;9.182;2022-10-16T00:48:26;3.77;;;1.77;;
19679;SDS011;9989;48.962;9.182;2022-10-16T00:50:52;4.57;;;1.93;;
19679;SDS011;9989;48.962;9.182;2022-10-16T00:53:18;6.97;;;2.10;;
19679;SDS011;9989;48.962;9.182;2022-10-16T00:55:44;4.70;;;2.00;;
19679;SDS011;9989;48.962;9.182;2022-10-16T00:58:11;5.80;;;2.13;;
19679;SDS011;9989;48.962;9.182;2022-10-16T01:00:37;6.40;;;2.10;;
19679;SDS011;9989;48.962;9.182;2022-10-16T01:03:03;3.80;;;1.83;;
19679;SDS011;9989;48.962;9.182;2022-10-16T01:05:49;9.83;;;1.93;;
19679;SDS011;9989;48.962;9.182;2022-10-16T01:08:34;5.60;;;1.97;;
19679;SDS011;9989;48.962;9.182;2022-10-16T01:11:12;3.97;;;1.77;;
19679;SDS011;9989;48.962;9.182;2022-10-16T01:13:48;4.97;;;2.13;;
19679;SDS011;9989;48.962;9.182;2022-10-16T01:16:29;5.37;;;1.70;;
19679;SDS011;9989;48.962;9.182;2022-10-16T01:19:09;5.93;;;2.30;;
19679;SDS011;9989;48.962;9.182;2022-10-16T01:21:42;4.07;;;1.93;;
19679;SDS011;9989;48.962;9.182;2022-10-16T01:24:15;6.37;;;2.20;;
19679;SDS011;9989;48.962;9.182;2022-10-16T01:32:16;6.10;;;2.30;;
19679;SDS011;9989;48.962;9.182;2022-10-16T01:35:05;3.63;;;1.77;;
19679;SDS011;9989;48.962;9.182;2022-10-16T01:40:19;5.00;;;2.20;;
19679;SDS011;9989;48.962;9.182;2022-10-16T01:42:52;5.60;;;2.23;;
19679;SDS011;9989;48.962;9.182;2022-10-16T01:45:26;6.03;;;2.30;;
19679;SDS011;9989;48.962;9.182;2022-10-16T01:47:55;4.37;;;2.03;;
19679;SDS011;9989;48.962;9.182;2022-10-16T01:50:21;7.17;;;2.07;;
19679;SDS011;9989;48.962;9.182;2022-10-16T01:52:48;5.23;;;2.20;;
19679;SDS011;9989;48.962;9.182;2022-10-16T01:55:22;4.67;;;2.20;;
19679;SDS011;9989;48.962;9.182;2022-10-16T01:57:53;4.30;;;2.17;;
19679;SDS011;9989;48.962;9.182;2022-10-16T02:00:20;4.77;;;2.10;;
19679;SDS011;9989;48.962;9.182;2022-10-16T02:02:48;4.53;;;2.03;;
19679;SDS011;9989;48.962;9.182;2022-10-16T02:05:20;4.40;;;2.00;;
19679;SDS011;9989;48.962;9.182;2022-10-16T02:07:50;4.50;;;2.10;;
19679;SDS011;9989;48.962;9.182;2022-10-16T02:10:16;4.40;;;2.00;;
19679;SDS011;9989;48.962;9.182;2022-10-16T02:12:44;6.00;;;2.33;;
19679;SDS011;9989;48.962;9.182;2022-10-16T02:15:15;4.77;;;2.10;;
19679;SDS011;9989;48.962;9.182;2022-10-16T02:17:41;5.57;;;2.20;;
19679;SDS011;9989;48.962;9.182;2022-10-16T02:20:06;5.40;;;2.37;;
19679;SDS011;9989;48.962;9.182;2022-10-16T02:22:38;6.00;;;2.17;;
19679;SDS011;9989;48.962;9.182;2022-10-16T02:25:10;7.13;;;2.60;;
19679;SDS011;9989;48.962;9.182;2022-10-16T02:28:12;4.93;;;2.10;;
19679;SDS011;9989;48.962;9.182;2022-10-16T02:30:58;5.60;;;2.50;;
19679;SDS011;9989;48.962;9.182;2022-10-16T02:33:26;6.27;;;2.10;;
19679;SDS011;9989;48.962;9.182;2022-10-16T02:35:54;4.60;;;2.13;;
19679;SDS011;9989;48.962;9.182;2022-10-16T02:38:21;5.40;;;2.10;;
19679;SDS011;9989;48.962;9.182;2022-10-16T02:40:48;4.77;;;2.10;;
19679;SDS011;9989;48.962;9.182;2022-10-16T02:43:14;5.57;;;2.30;;
19679;SDS011;9989;48.962;9.182;2022-10-16T02:45:41;5.13;;;2.40;;
19679;SDS011;9989;48.962;9.182;2022-10-16T02:48:06;5.23;;;2.60;;
19679;SDS011;9989;48.962;9.182;2022-10-16T02:50:32;6.83;;;2.30;;
19679;SDS011;9989;48.962;9.182;2022-10-16T02:52:58;6.13;;;2.80;;
19679;SDS011;9989;48.962;9.182;2022-10-16T02:55:23;4.47;;;2.20;;
19679;SDS011;9989;48.962;9.182;2022-10-16T02:57:49;5.43;;;2.57;;
19679;SDS011;9989;48.962;9.182;2022-10-16T03:00:15;6.40;;;2.63;;
19679;SDS011;9989;48.962;9.182;2022-10-16T03:02:42;6.10;;;2.20;;
19679;SDS011;9989;48.962;9.182;2022-10-16T03:05:08;4.67;;;2.10;;
19679;SDS011;9989;48.962;9.182;2022-10-16T03:07:34;4.73;;;2.20;;
19679;SDS011;9989;48.962;9.182;2022-10-16T03:10:00;3.80;;;1.97;;
19679;SDS011;9989;48.962;9.182;2022-10-16T03:12:29;4.60;;;2.20;;
19679;SDS011;9989;48.962;9.182;2022-10-16T03:14:55;5.60;;;2.50;;
19679;SDS011;9989;48.962;9.182;2022-10-16T03:17:21;4.90;;;2.27;;
19679;SDS011;9989;48.962;9.182;2022-10-16T03:19:47;5.23;;;2.27;;
19679;SDS011;9989;48.962;9.182;2022-10-16T03:22:13;5.23;;;2.20;;
19679;SDS011;9989;48.962;9.182;2022-10-16T03:24:38;5.57;;;2.40;;
19679;SDS011;9989;48.962;9.182;2022-10-16T03:27:04;6.50;;;2.47;;
19679;SDS011;9989;48.962;9.182;2022-10-16T03:29:30;5.00;;;2.23;;
19679;SDS011;9989;48.962;9.182;2022-10-16T03:31:57;5.13;;;2.20;;
19679;SDS011;9989;48.962;9.182;2022-10-16T03:34:22;5.40;;;2.13;;
19679;SDS011;9989;48.962;9.182;2022-10-16T03:36:48;6.07;;;2.60;;
19679;SDS011;9989;48.962;9.182;2022-10-16T03:39:13;5.30;;;2.43;;
19679;SDS011;9989;48.962;9.182;2022-10-16T03:41:39;6.97;;;2.70;;
19679;SDS011;9989;48.962;9.182;2022-10-16T03:44:05;8.93;;;2.40;;
19679;SDS011;9989;48.962;9.182;2022-10-16T03:46:30;5.53;;;2.70;;
19679;SDS011;9989;48.962;9.182;2022-10-16T03:48:57;6.27;;;2.50;;
19679;SDS011;9989;48.962;9.182;2022-10-16T03:51:22;6.60;;;2.73;;
19679;SDS011;9989;48.962;9.182;2022-10-16T03:53:48;8.33;;;2.40;;
19679;SDS011;9989;48.962;9.182;2022-10-16T03:56:13;6.70;;;2.70;;
19679;SDS011;9989;48.962;9.182;2022-10-16T03:58:39;4.43;;;2.03;;
19679;SDS011;9989;48.962;9.182;2022-10-16T04:01:05;7.43;;;2.57;;
19679;SDS011;9989;48.962;9.182;2022-10-16T04:03:30;4.63;;;2.23;;
19679;SDS011;9989;48.962;9.182;2022-10-16T04:05:56;4.43;;;2.10;;
19679;SDS011;9989;48.962;9.182;2022-10-16T04:08:21;7.30;;;2.50;;
19679;SDS011;9989;48.962;9.182;2022-10-16T04:10:47;5.47;;;2.33;;
19679;SDS011;9989;48.962;9.182;2022-10-16T04:13:13;6.03;;;2.70;;
19679;SDS011;9989;48.962;9.182;2022-10-16T04:15:38;5.73;;;2.67;;
19679;SDS011;9989;48.962;9.182;2022-10-16T04:18:04;6.23;;;2.30;;
19679;SDS011;9989;48.962;9.182;2022-10-16T04:20:30;5.90;;;2.50;;
19679;SDS011;9989;48.962;9.182;2022-10-16T04:22:56;6.00;;;2.17;;
19679;SDS011;9989;48.962;9.182;2022-10-16T04:25:22;5.70;;;2.43;;
19679;SDS011;9989;48.962;9.182;2022-10-16T04:27:47;5.83;;;2.40;;
19679;SDS011;9989;48.962;9.182;2022-10-16T04:30:13;5.53;;;2.43;;
19679;SDS011;9989;48.962;9.182;2022-10-16T04:32:39;4.57;;;2.10;;
19679;SDS011;9989;48.962;9.182;2022-10-16T04:35:06;4.90;;;2.20;;
19679;SDS011;9989;48.962;9.182;2022-10-16T04:37:32;6.30;;;2.30;;
19679;SDS011;9989;48.962;9.182;2022-10-16T04:39:57;5.30;;;2.47;;
19679;SDS011;9989;48.962;9.182;2022-10-16T04:42:23;5.47;;;2.30;;
19679;SDS011;9989;48.962;9.182;2022-10-16T04:44:48;4.47;;;2.10;;
19679;SDS011;9989;48.962;9.182;2022-10-16T04:47:14;4.77;;;2.13;;
19679;SDS011;9989;48.962;9.182;2022-10-16T04:49:39;6.27;;;2.60;;
19679;SDS011;9989;48.962;9.182;2022-10-16T04:52:05;5.00;;;2.30;;
19679;SDS011;9989;48.962;9.182;2022-10-16T04:54:31;5.53;;;2.37;;
19679;SDS011;9989;48.962;9.182;2022-10-16T04:56:57;5.43;;;2.47;;
19679;SDS011;9989;48.962;9.182;2022-10-16T04:59:22;5.57;;;2.10;;
19679;SDS011;9989;48.962;9.182;2022-10-16T05:01:49;6.30;;;2.80;;
19679;SDS011;9989;48.962;9.182;2022-10-16T05:04:15;6.93;;;2.90;;
19679;SDS011;9989;48.962;9.182;2022-10-16T05:06:41;6.90;;;2.37;;
19679;SDS011;9989;48.962;9.182;2022-10-16T05:09:07;6.30;;;2.90;;
19679;SDS011;9989;48.962;9.182;2022-10-16T05:11:34;6.87;;;2.83;;
19679;SDS011;9989;48.962;9.182;2022-10-16T05:14:00;6.37;;;3.00;;
19679;SDS011;9989;48.962;9.182;2022-10-16T05:16:26;7.00;;;3.23;;
19679;SDS011;9989;48.962;9.182;2022-10-16T05:18:51;7.57;;;3.57;;
19679;SDS011;9989;48.962;9.182;2022-10-16T05:21:17;7.77;;;3.20;;
19679;SDS011;9989;48.962;9.182;2022-10-16T05:23:43;6.80;;;2.87;;
19679;SDS011;9989;48.962;9.182;2022-10-16T05:26:09;6.33;;;3.00;;
19679;SDS011;9989;48.962;9.182;2022-10-16T05:28:34;5.57;;;2.63;;
19679;SDS011;9989;48.962;9.182;2022-10-16T05:31:09;7.00;;;2.70;;
19679;SDS011;9989;48.962;9.182;2022-10-16T05:33:35;6.03;;;2.50;;
19679;SDS011;9989;48.962;9.182;2022-10-16T05:36:01;7.90;;;2.47;;
19679;SDS011;9989;48.962;9.182;2022-10-16T05:38:32;7.10;;;2.60;;
19679;SDS011;9989;48.962;9.182;2022-10-16T05:40:58;6.03;;;2.90;;
19679;SDS011;9989;48.962;9.182;2022-10-16T05:43:24;5.10;;;2.40;;
19679;SDS011;9989;48.962;9.182;2022-10-16T05:45:53;4.93;;;2.40;;
19679;SDS011;9989;48.962;9.182;2022-10-16T05:48:22;6.63;;;2.70;;
19679;SDS011;9989;48.962;9.182;2022-10-16T05:50:48;5.27;;;2.50;;
19679;SDS011;9989;48.962;9.182;2022-10-16T05:53:24;4.87;;;2.30;;
19679;SDS011;9989;48.962;9.182;2022-10-16T05:55:52;6.83;;;2.53;;
19679;SDS011;9989;48.962;9.182;2022-10-16T05:58:18;4.53;;;2.33;;
19679;SDS011;9989;48.962;9.182;2022-10-16T06:00:44;5.83;;;3.00;;
19679;SDS011;9989;48.962;9.182;2022-10-16T06:03:09;6.03;;;2.40;;
19679;SDS011;9989;48.962;9.182;2022-10-16T06:05:35;6.73;;;2.90;;
19679;SDS011;9989;48.962;9.182;2022-10-16T06:08:01;8.23;;;2.93;;
19679;SDS011;9989;48.962;9.182;2022-10-16T06:10:26;10.03;;;2.87;;
19679;SDS011;9989;48.962;9.182;2022-10-16T06:12:53;6.43;;;2.80;;
19679;SDS011;9989;48.962;9.182;2022-10-16T06:15:19;11.53;;;2.90;;
19679;SDS011;9989;48.962;9.182;2022-10-16T06:17:44;7.47;;;3.27;;
19679;SDS011;9989;48.962;9.182;2022-10-16T06:20:10;4.93;;;2.33;;
19679;SDS011;9989;48.962;9.182;2022-10-16T06:22:36;5.40;;;2.60;;
19679;SDS011;9989;48.962;9.182;2022-10-16T06:25:01;5.43;;;2.70;;
19679;SDS011;9989;48.962;9.182;2022-10-16T06:27:27;6.10;;;2.53;;
19679;SDS011;9989;48.962;9.182;2022-10-16T06:29:52;6.33;;;2.80;;
19679;SDS011;9989;48.962;9.182;2022-10-16T06:32:18;6.70;;;2.90;;
19679;SDS011;9989;48.962;9.182;2022-10-16T06:34:44;17.20;;;3.30;;
19679;SDS011;9989;48.962;9.182;2022-10-16T06:37:09;6.40;;;2.73;;
19679;SDS011;9989;48.962;9.182;2022-10-16T06:39:35;7.00;;;2.50;;
19679;SDS011;9989;48.962;9.182;2022-10-16T06:42:00;8.80;;;3.27;;
19679;SDS011;9989;48.962;9.182;2022-10-16T06:44:26;6.43;;;3.00;;
19679;SDS011;9989;48.962;9.182;2022-10-16T06:46:51;6.23;;;2.70;;
19679;SDS011;9989;48.962;9.182;2022-10-16T06:49:17;6.20;;;2.70;;
19679;SDS011;9989;48.962;9.182;2022-10-16T06:51:47;8.07;;;3.07;;
19679;SDS011;9989;48.962;9.182;2022-10-16T06:54:14;6.13;;;3.10;;
19679;SDS011;9989;48.962;9.182;2022-10-16T06:56:40;8.37;;;3.77;;
19679;SDS011;9989;48.962;9.182;2022-10-16T06:59:05;7.27;;;3.17;;
19679;SDS011;9989;48.962;9.182;2022-10-16T07:01:31;6.67;;;3.00;;
19679;SDS011;9989;48.962;9.182;2022-10-16T07:03:57;6.87;;;3.20;;
19679;SDS011;9989;48.962;9.182;2022-10-16T07:06:23;7.23;;;2.90;;
19679;SDS011;9989;48.962;9.182;2022-10-16T07:08:50;7.40;;;3.87;;
19679;SDS011;9989;48.962;9.182;2022-10-16T07:11:17;5.67;;;2.60;;
19679;SDS011;9989;48.962;9.182;2022-10-16T07:13:44;5.63;;;2.60;;
19679;SDS011;9989;48.962;9.182;2022-10-16T07:16:12;6.13;;;2.73;;
19679;SDS011;9989;48.962;9.182;2022-10-16T07:18:40;5.00;;;2.40;;
19679;SDS011;9989;48.962;9.182;2022-10-16T07:21:11;6.73;;;2.60;;
19679;SDS011;9989;48.962;9.182;2022-10-16T07:23:38;6.33;;;2.70;;
19679;SDS011;9989;48.962;9.182;2022-10-16T07:26:05;6.27;;;2.90;;
19679;SDS011;9989;48.962;9.182;2022-10-16T07:28:32;7.70;;;2.77;;
19679;SDS011;9989;48.962;9.182;2022-10-16T07:31:09;11.40;;;2.70;;
19679;SDS011;9989;48.962;9.182;2022-10-16T07:33:36;5.87;;;2.53;;
19679;SDS011;9989;48.962;9.182;2022-10-16T07:36:03;8.30;;;2.60;;
19679;SDS011;9989;48.962;9.182;2022-10-16T07:38:29;6.90;;;3.30;;
19679;SDS011;9989;48.962;9.182;2022-10-16T07:40:58;9.80;;;3.60;;
19679;SDS011;9989;48.962;9.182;2022-10-16T07:43:28;6.37;;;3.10;;
19679;SDS011;9989;48.962;9.182;2022-10-16T07:45:54;8.63;;;3.50;;
19679;SDS011;9989;48.962;9.182;2022-10-16T07:48:20;8.37;;;3.13;;
19679;SDS011;9989;48.962;9.182;2022-10-16T07:50:47;7.07;;;3.00;;
19679;SDS011;9989;48.962;9.182;2022-10-16T07:53:13;7.33;;;3.53;;
19679;SDS011;9989;48.962;9.182;2022-10-16T07:55:39;7.77;;;3.67;;
19679;SDS011;9989;48.962;9.182;2022-10-16T07:58:05;10.17;;;4.27;;
19679;SDS011;9989;48.962;9.182;2022-10-16T08:00:31;6.50;;;2.60;;
19679;SDS011;9989;48.962;9.182;2022-10-16T08:02:57;5.87;;;2.60;;
19679;SDS011;9989;48.962;9.182;2022-10-16T08:05:27;5.27;;;2.30;;
19679;SDS011;9989;48.962;9.182;2022-10-16T08:07:53;6.23;;;2.67;;
19679;SDS011;9989;48.962;9.182;2022-10-16T08:10:19;7.53;;;2.43;;
19679;SDS011;9989;48.962;9.182;2022-10-16T08:12:46;6.33;;;3.00;;
19679;SDS011;9989;48.962;9.182;2022-10-16T08:15:12;7.97;;;2.40;;
19679;SDS011;9989;48.962;9.182;2022-10-16T08:17:38;4.97;;;2.47;;
19679;SDS011;9989;48.962;9.182;2022-10-16T08:20:04;5.87;;;2.20;;
19679;SDS011;9989;48.962;9.182;2022-10-16T08:22:30;4.47;;;2.43;;
19679;SDS011;9989;48.962;9.182;2022-10-16T08:24:56;9.37;;;2.60;;
19679;SDS011;9989;48.962;9.182;2022-10-16T08:27:21;5.87;;;2.60;;
19679;SDS011;9989;48.962;9.182;2022-10-16T08:29:48;6.30;;;2.53;;
19679;SDS011;9989;48.962;9.182;2022-10-16T08:32:13;5.73;;;2.50;;
19679;SDS011;9989;48.962;9.182;2022-10-16T08:34:39;5.87;;;2.20;;
19679;SDS011;9989;48.962;9.182;2022-10-16T08:37:05;6.73;;;2.17;;
19679;SDS011;9989;48.962;9.182;2022-10-16T08:39:32;6.37;;;2.40;;
19679;SDS011;9989;48.962;9.182;2022-10-16T08:50:14;4.27;;;1.97;;
19679;SDS011;9989;48.962;9.182;2022-10-16T08:52:47;3.83;;;1.70;;
19679;SDS011;9989;48.962;9.182;2022-10-16T08:58:19;6.50;;;2.03;;
19679;SDS011;9989;48.962;9.182;2022-10-16T09:00:55;5.13;;;2.03;;
19679;SDS011;9989;48.962;9.182;2022-10-16T09:12:04;4.40;;;2.00;;
19679;SDS011;9989;48.962;9.182;2022-10-16T09:17:11;4.37;;;1.97;;
19679;SDS011;9989;48.962;9.182;2022-10-16T09:20:00;4.97;;;2.03;;
19679;SDS011;9989;48.962;9.182;2022-10-16T09:22:32;4.13;;;1.93;;
19679;SDS011;9989;48.962;9.182;2022-10-16T09:24:59;25.10;;;2.67;;
19679;SDS011;9989;48.962;9.182;2022-10-16T09:27:34;5.03;;;2.43;;
19679;SDS011;9989;48.962;9.182;2022-10-16T09:30:00;9.70;;;2.10;;
19679;SDS011;9989;48.962;9.182;2022-10-16T09:32:27;4.50;;;1.93;;
19679;SDS011;9989;48.962;9.182;2022-10-16T09:34:54;7.13;;;2.50;;
19679;SDS011;9989;48.962;9.182;2022-10-16T09:37:23;6.17;;;2.00;;
19679;SDS011;9989;48.962;9.182;2022-10-16T09:39:51;5.03;;;1.70;;
19679;SDS011;9989;48.962;9.182;2022-10-16T09:42:18;3.03;;;1.47;;
19679;SDS011;9989;48.962;9.182;2022-10-16T09:44:48;4.57;;;1.60;;
19679;SDS011;9989;48.962;9.182;2022-10-16T09:47:17;4.37;;;1.60;;
19679;SDS011;9989;48.962;9.182;2022-10-16T09:49:52;3.63;;;1.67;;
19679;SDS011;9989;48.962;9.182;2022-10-16T09:52:31;4.50;;;1.87;;
19679;SDS011;9989;48.962;9.182;2022-10-16T09:54:59;3.87;;;1.70;;
19679;SDS011;9989;48.962;9.182;2022-10-16T09:57:47;3.50;;;1.50;;
19679;SDS011;9989;48.962;9.182;2022-10-16T10:00:20;3.57;;;1.70;;
19679;SDS011;9989;48.962;9.182;2022-10-16T10:02:47;4.37;;;1.87;;
19679;SDS011;9989;48.962;9.182;2022-10-16T10:05:23;3.97;;;1.60;;
19679;SDS011;9989;48.962;9.182;2022-10-16T10:08:03;5.60;;;1.80;;
19679;SDS011;9989;48.962;9.182;2022-10-16T10:10:31;5.40;;;1.70;;
19679;SDS011;9989;48.962;9.182;2022-10-16T10:12:59;4.67;;;1.80;;
19679;SDS011;9989;48.962;9.182;2022-10-16T10:15:25;4.67;;;1.83;;
19679;SDS011;9989;48.962;9.182;2022-10-16T10:17:56;5.97;;;1.77;;
19679;SDS011;9989;48.962;9.182;2022-10-16T10:20:29;3.80;;;1.50;;
19679;SDS011;9989;48.962;9.182;2022-10-16T10:22:59;3.83;;;1.60;;
19679;SDS011;9989;48.962;9.182;2022-10-16T10:36:48;6.07;;;1.87;;
19679;SDS011;9989;48.962;9.182;2022-10-16T10:39:30;6.93;;;2.10;;
19679;SDS011;9989;48.962;9.182;2022-10-16T10:42:16;5.73;;;1.90;;
19679;SDS011;9989;48.962;9.182;2022-10-16T10:47:43;8.10;;;2.20;;
19679;SDS011;9989;48.962;9.182;2022-10-16T10:50:39;7.47;;;1.83;;
19679;SDS011;9989;48.962;9.182;2022-10-16T11:01:56;5.63;;;2.00;;
19679;SDS011;9989;48.962;9.182;2022-10-16T11:07:19;5.37;;;1.80;;
19679;SDS011;9989;48.962;9.182;2022-10-16T11:09:58;6.50;;;2.13;;
19679;SDS011;9989;48.962;9.182;2022-10-16T11:12:38;4.87;;;1.90;;
19679;SDS011;9989;48.962;9.182;2022-10-16T11:15:12;8.37;;;2.00;;
19679;SDS011;9989;48.962;9.182;2022-10-16T11:22:52;4.90;;;1.73;;
19679;SDS011;9989;48.962;9.182;2022-10-16T11:25:22;3.90;;;1.90;;
19679;SDS011;9989;48.962;9.182;2022-10-16T11:30:26;3.63;;;1.47;;
19679;SDS011;9989;48.962;9.182;2022-10-16T11:38:52;3.70;;;1.38;;
19679;SDS011;9989;48.962;9.182;2022-10-16T11:41:07;3.55;;;1.38;;
19679;SDS011;9989;48.962;9.182;2022-10-16T11:43:39;4.45;;;1.25;;
19679;SDS011;9989;48.962;9.182;2022-10-16T11:46:10;2.75;;;1.33;;
19679;SDS011;9989;48.962;9.182;2022-10-16T11:48:45;3.42;;;1.40;;
19679;SDS011;9989;48.962;9.182;2022-10-16T11:51:36;3.83;;;1.52;;
19679;SDS011;9989;48.962;9.182;2022-10-16T11:56:46;2.75;;;1.35;;
19679;SDS011;9989;48.962;9.182;2022-10-16T12:02:17;3.92;;;1.40;;
19679;SDS011;9989;48.962;9.182;2022-10-16T12:04:51;3.85;;;1.38;;
19679;SDS011;9989;48.962;9.182;2022-10-16T12:07:34;2.58;;;1.30;;
19679;SDS011;9989;48.962;9.182;2022-10-16T12:10:10;3.33;;;1.40;;
19679;SDS011;9989;48.962;9.182;2022-10-16T12:12:51;2.42;;;1.30;;
19679;SDS011;9989;48.962;9.182;2022-10-16T12:17:48;2.85;;;1.23;;
19679;SDS011;9989;48.962;9.182;2022-10-16T12:25:32;6.72;;;1.58;;
19679;SDS011;9989;48.962;9.182;2022-10-16T12:28:21;4.13;;;1.40;;
19679;SDS011;9989;48.962;9.182;2022-10-16T12:30:53;2.22;;;1.30;;
19679;SDS011;9989;48.962;9.182;2022-10-16T12:33:21;2.10;;;1.15;;
19679;SDS011;9989;48.962;9.182;2022-10-16T12:35:51;3.30;;;1.38;;
19679;SDS011;9989;48.962;9.182;2022-10-16T12:38:25;1.90;;;1.13;;
19679;SDS011;9989;48.962;9.182;2022-10-16T12:43:37;3.30;;;1.30;;
19679;SDS011;9989;48.962;9.182;2022-10-16T12:48:33;2.37;;;1.17;;
19679;SDS011;9989;48.962;9.182;2022-10-16T12:59:19;2.80;;;1.33;;
19679;SDS011;9989;48.962;9.182;2022-10-16T13:02:20;2.40;;;1.23;;
19679;SDS011;9989;48.962;9.182;2022-10-16T13:13:49;2.33;;;1.33;;
19679;SDS011;9989;48.962;9.182;2022-10-16T13:16:01;5.53;;;1.50;;
19679;SDS011;9989;48.962;9.182;2022-10-16T13:30:12;3.83;;;1.70;;
19679;SDS011;9989;48.962;9.182;2022-10-16T13:32:45;3.77;;;1.67;;
19679;SDS011;9989;48.962;9.182;2022-10-16T13:35:47;3.13;;;1.60;;
19679;SDS011;9989;48.962;9.182;2022-10-16T13:38:13;4.47;;;1.70;;
19679;SDS011;9989;48.962;9.182;2022-10-16T13:41:02;3.37;;;1.70;;
19679;SDS011;9989;48.962;9.182;2022-10-16T13:43:28;3.20;;;1.50;;
19679;SDS011;9989;48.962;9.182;2022-10-16T13:46:04;4.17;;;1.60;;
19679;SDS011;9989;48.962;9.182;2022-10-16T13:48:40;3.30;;;1.60;;
19679;SDS011;9989;48.962;9.182;2022-10-16T13:51:16;2.37;;;1.30;;
19679;SDS011;9989;48.962;9.182;2022-10-16T13:53:43;2.40;;;1.30;;
19679;SDS011;9989;48.962;9.182;2022-10-16T13:56:11;2.83;;;1.40;;
19679;SDS011;9989;48.962;9.182;2022-10-16T13:58:38;2.67;;;1.40;;
19679;SDS011;9989;48.962;9.182;2022-10-16T14:01:05;4.37;;;1.63;;
19679;SDS011;9989;48.962;9.182;2022-10-16T14:03:39;3.10;;;1.30;;
19679;SDS011;9989;48.962;9.182;2022-10-16T14:06:06;3.93;;;1.70;;
19679;SDS011;9989;48.962;9.182;2022-10-16T14:08:41;3.73;;;1.67;;
19679;SDS011;9989;48.962;9.182;2022-10-16T14:11:09;4.33;;;1.50;;
19679;SDS011;9989;48.962;9.182;2022-10-16T14:13:43;2.33;;;1.20;;
19679;SDS011;9989;48.962;9.182;2022-10-16T14:16:11;3.63;;;1.40;;
19679;SDS011;9989;48.962;9.182;2022-10-16T14:18:45;4.03;;;1.70;;
19679;SDS011;9989;48.962;9.182;2022-10-16T14:21:20;3.47;;;1.53;;
19679;SDS011;9989;48.962;9.182;2022-10-16T14:23:45;3.10;;;1.50;;
19679;SDS011;9989;48.962;9.182;2022-10-16T14:26:12;2.60;;;1.30;;
19679;SDS011;9989;48.962;9.182;2022-10-16T14:28:39;2.93;;;1.50;;
19679;SDS011;9989;48.962;9.182;2022-10-16T14:33:51;4.27;;;1.50;;
19679;SDS011;9989;48.962;9.182;2022-10-16T14:36:16;2.93;;;1.30;;
19679;SDS011;9989;48.962;9.182;2022-10-16T14:41:32;3.70;;;1.67;;
19679;SDS011;9989;48.962;9.182;2022-10-16T14:44:06;3.70;;;1.60;;
19679;SDS011;9989;48.962;9.182;2022-10-16T14:46:33;3.37;;;1.60;;
19679;SDS011;9989;48.962;9.182;2022-10-16T14:49:12;4.57;;;1.70;;
19679;SDS011;9989;48.962;9.182;2022-10-16T14:51:43;5.53;;;1.70;;
19679;SDS011;9989;48.962;9.182;2022-10-16T14:54:11;6.33;;;1.70;;
19679;SDS011;9989;48.962;9.182;2022-10-16T14:56:51;5.27;;;1.90;;
19679;SDS011;9989;48.962;9.182;2022-10-16T14:59:29;4.33;;;1.70;;
19679;SDS011;9989;48.962;9.182;2022-10-16T15:01:55;3.20;;;1.53;;
19679;SDS011;9989;48.962;9.182;2022-10-16T15:04:21;3.77;;;1.80;;
19679;SDS011;9989;48.962;9.182;2022-10-16T15:06:46;6.50;;;1.60;;
19679;SDS011;9989;48.962;9.182;2022-10-16T15:09:12;3.80;;;1.80;;
19679;SDS011;9989;48.962;9.182;2022-10-16T15:11:38;4.47;;;1.70;;
19679;SDS011;9989;48.962;9.182;2022-10-16T15:14:04;4.47;;;1.73;;
19679;SDS011;9989;48.962;9.182;2022-10-16T15:16:30;5.23;;;1.80;;
19679;SDS011;9989;48.962;9.182;2022-10-16T15:18:56;5.30;;;1.70;;
19679;SDS011;9989;48.962;9.182;2022-10-16T15:21:24;3.40;;;1.60;;
19679;SDS011;9989;48.962;9.182;2022-10-16T15:23:49;3.67;;;1.57;;
19679;SDS011;9989;48.962;9.182;2022-10-16T15:26:15;4.93;;;2.00;;
19679;SDS011;9989;48.962;9.182;2022-10-16T15:28:41;5.33;;;1.80;;
19679;SDS011;9989;48.962;9.182;2022-10-16T15:31:07;3.73;;;1.60;;
19679;SDS011;9989;48.962;9.182;2022-10-16T15:33:32;3.03;;;1.50;;
19679;SDS011;9989;48.962;9.182;2022-10-16T15:35:59;3.03;;;1.60;;
19679;SDS011;9989;48.962;9.182;2022-10-16T15:38:26;4.27;;;1.60;;
19679;SDS011;9989;48.962;9.182;2022-10-16T15:40:53;4.27;;;1.80;;
19679;SDS011;9989;48.962;9.182;2022-10-16T15:43:19;4.20;;;1.73;;
19679;SDS011;9989;48.962;9.182;2022-10-16T15:45:47;4.13;;;1.70;;
19679;SDS011;9989;48.962;9.182;2022-10-16T15:48:27;3.60;;;1.60;;
19679;SDS011;9989;48.962;9.182;2022-10-16T15:50:54;4.93;;;2.23;;
19679;SDS011;9989;48.962;9.182;2022-10-16T15:53:19;3.63;;;1.70;;
19679;SDS011;9989;48.962;9.182;2022-10-16T15:55:45;3.50;;;1.70;;
19679;SDS011;9989;48.962;9.182;2022-10-16T15:58:10;3.83;;;1.80;;
19679;SDS011;9989;48.962;9.182;2022-10-16T16:00:36;4.30;;;1.97;;
19679;SDS011;9989;48.962;9.182;2022-10-16T16:03:02;4.17;;;1.90;;
19679;SDS011;9989;48.962;9.182;2022-10-16T16:05:28;9.77;;;2.60;;
19679;SDS011;9989;48.962;9.182;2022-10-16T16:07:54;5.33;;;2.50;;
19679;SDS011;9989;48.962;9.182;2022-10-16T16:10:20;5.83;;;2.90;;
19679;SDS011;9989;48.962;9.182;2022-10-16T16:12:48;6.77;;;3.70;;
19679;SDS011;9989;48.962;9.182;2022-10-16T16:15:17;6.43;;;3.40;;
19679;SDS011;9989;48.962;9.182;2022-10-16T16:17:46;7.70;;;3.70;;
19679;SDS011;9989;48.962;9.182;2022-10-16T16:20:13;6.30;;;3.20;;
19679;SDS011;9989;48.962;9.182;2022-10-16T16:22:39;6.40;;;3.10;;
19679;SDS011;9989;48.962;9.182;2022-10-16T16:25:04;5.27;;;2.47;;
19679;SDS011;9989;48.962;9.182;2022-10-16T16:27:30;8.60;;;2.63;;
19679;SDS011;9989;48.962;9.182;2022-10-16T16:29:58;7.70;;;2.63;;
19679;SDS011;9989;48.962;9.182;2022-10-16T16:32:24;7.50;;;3.10;;
19679;SDS011;9989;48.962;9.182;2022-10-16T16:34:50;6.60;;;3.43;;
19679;SDS011;9989;48.962;9.182;2022-10-16T16:37:15;8.10;;;3.03;;
19679;SDS011;9989;48.962;9.182;2022-10-16T16:39:41;5.03;;;2.50;;
19679;SDS011;9989;48.962;9.182;2022-10-16T16:42:07;7.10;;;2.90;;
19679;SDS011;9989;48.962;9.182;2022-10-16T16:44:33;5.80;;;2.70;;
19679;SDS011;9989;48.962;9.182;2022-10-16T16:47:01;5.73;;;2.30;;
19679;SDS011;9989;48.962;9.182;2022-10-16T16:49:27;6.93;;;2.67;;
19679;SDS011;9989;48.962;9.182;2022-10-16T16:51:53;10.10;;;2.53;;
19679;SDS011;9989;48.962;9.182;2022-10-16T16:54:19;7.47;;;2.50;;
19679;SDS011;9989;48.962;9.182;2022-10-16T16:56:44;6.37;;;2.67;;
19679;SDS011;9989;48.962;9.182;2022-10-16T16:59:14;6.27;;;2.90;;
19679;SDS011;9989;48.962;9.182;2022-10-16T17:01:45;15.30;;;5.80;;
19679;SDS011;9989;48.962;9.182;2022-10-16T17:04:10;11.53;;;6.33;;
19679;SDS011;9989;48.962;9.182;2022-10-16T17:06:38;16.03;;;7.80;;
19679;SDS011;9989;48.962;9.182;2022-10-16T17:09:05;13.03;;;7.47;;
19679;SDS011;9989;48.962;9.182;2022-10-16T17:11:31;13.60;;;7.47;;
19679;SDS011;9989;48.962;9.182;2022-10-16T17:13:57;10.80;;;5.20;;